sensor_id;sensor_type;location;lat;lon;timestamp;pressure;altitude;pressure_sealevel;temperature;humidity
77739;BME280;66904;59.926;30.404;2023-06-05T00:04:30;101486.25;;;23.95;42.37
77739;BME280;66904;59.926;30.404;2023-06-05T00:09:31;101487.25;;;23.94;42.14
77739;BME280;66904;59.926;30.404;2023-06-05T00:14:31;101484.75;;;23.93;42.43
77739;BME280;66904;59.926;30.404;2023-06-05T00:19:32;101475.69;;;23.86;42.10
77739;BME280;66904;59.926;30.404;2023-06-05T00:24:34;101486.78;;;23.91;41.99
77739;BME280;66904;59.926;30.404;2023-06-05T00:29:35;101485.28;;;23.88;42.15
77739;BME280;66904;59.926;30.404;2023-06-05T00:34:36;101498.81;;;23.88;42.26
77739;BME280;66904;59.926;30.404;2023-06-05T00:39:36;101494.78;;;23.84;42.14
77739;BME280;66904;59.926;30.404;2023-06-05T00:44:37;101502.88;;;23.84;42.00
77739;BME280;66904;59.926;30.404;2023-06-05T00:49:37;101504.94;;;23.82;42.04
77739;BME280;66904;59.926;30.404;2023-06-05T00:54:39;101505.78;;;23.83;42.08
77739;BME280;66904;59.926;30.404;2023-06-05T00:59:40;101512.38;;;23.80;41.72
77739;BME280;66904;59.926;30.404;2023-06-05T01:04:45;101501.75;;;23.79;41.87
77739;BME280;66904;59.926;30.404;2023-06-05T01:09:47;101505.47;;;23.78;41.86
77739;BME280;66904;59.926;30.404;2023-06-05T01:14:48;101510.22;;;23.76;42.13
77739;BME280;66904;59.926;30.404;2023-06-05T01:19:49;101510.38;;;23.74;41.91
77739;BME280;66904;59.926;30.404;2023-06-05T01:24:50;101511.59;;;23.72;41.94
77739;BME280;66904;59.926;30.404;2023-06-05T01:30:15;101510.38;;;23.74;42.04
77739;BME280;66904;59.926;30.404;2023-06-05T01:35:17;101514.66;;;23.68;41.87
77739;BME280;66904;59.926;30.404;2023-06-05T01:40:20;101514.81;;;23.67;41.78
77739;BME280;66904;59.926;30.404;2023-06-05T01:45:21;101521.06;;;23.67;41.67
77739;BME280;66904;59.926;30.404;2023-06-05T01:50:22;101513.16;;;23.66;41.77
77739;BME280;66904;59.926;30.404;2023-06-05T01:55:23;101512.19;;;23.59;41.84
77739;BME280;66904;59.926;30.404;2023-06-05T02:00:24;101515.38;;;23.62;41.72
77739;BME280;66904;59.926;30.404;2023-06-05T02:05:25;101522.44;;;23.63;41.91
77739;BME280;66904;59.926;30.404;2023-06-05T02:10:29;101519.75;;;23.63;41.64
77739;BME280;66904;59.926;30.404;2023-06-05T02:15:30;101527.19;;;23.61;41.95
77739;BME280;66904;59.926;30.404;2023-06-05T02:20:32;101526.34;;;23.61;41.69
77739;BME280;66904;59.926;30.404;2023-06-05T02:25:33;101538.00;;;23.61;41.68
77739;BME280;66904;59.926;30.404;2023-06-05T02:30:33;101537.16;;;23.61;41.72
77739;BME280;66904;59.926;30.404;2023-06-05T02:35:33;101534.81;;;23.58;41.89
77739;BME280;66904;59.926;30.404;2023-06-05T02:40:36;101541.72;;;23.60;41.54
77739;BME280;66904;59.926;30.404;2023-06-05T02:45:36;101542.94;;;23.58;41.46
77739;BME280;66904;59.926;30.404;2023-06-05T02:50:37;101552.72;;;23.59;41.37
77739;BME280;66904;59.926;30.404;2023-06-05T02:55:38;101550.19;;;23.57;41.31
77739;BME280;66904;59.926;30.404;2023-06-05T03:00:40;101552.03;;;23.57;41.08
77739;BME280;66904;59.926;30.404;2023-06-05T03:05:41;101554.94;;;23.55;41.17
77739;BME280;66904;59.926;30.404;2023-06-05T03:10:43;101557.63;;;23.55;41.16
77739;BME280;66904;59.926;30.404;2023-06-05T03:15:43;101558.66;;;23.54;41.15
77739;BME280;66904;59.926;30.404;2023-06-05T03:20:44;101554.09;;;23.55;41.20
77739;BME280;66904;59.926;30.404;2023-06-05T03:25:45;101554.09;;;23.55;40.96
77739;BME280;66904;59.926;30.404;2023-06-05T03:30:46;101551.91;;;23.50;40.94
77739;BME280;66904;59.926;30.404;2023-06-05T03:35:46;101561.69;;;23.51;41.14
77739;BME280;66904;59.926;30.404;2023-06-05T03:40:47;101562.72;;;23.50;41.26
77739;BME280;66904;59.926;30.404;2023-06-05T03:45:47;101561.06;;;23.49;40.76
77739;BME280;66904;59.926;30.404;2023-06-05T03:50:49;101557.16;;;23.52;40.63
77739;BME280;66904;59.926;30.404;2023-06-05T03:55:52;101563.19;;;23.54;40.91
77739;BME280;66904;59.926;30.404;2023-06-05T04:00:53;101555.94;;;23.54;41.28
77739;BME280;66904;59.926;30.404;2023-06-05T04:05:54;101563.88;;;23.56;41.09
77739;BME280;66904;59.926;30.404;2023-06-05T04:10:54;101559.31;;;23.56;41.16
77739;BME280;66904;59.926;30.404;2023-06-05T04:15:55;101562.97;;;23.63;41.46
77739;BME280;66904;59.926;30.404;2023-06-05T04:20:56;101570.03;;;23.73;41.75
77739;BME280;66904;59.926;30.404;2023-06-05T04:25:56;101568.47;;;23.78;41.95
77739;BME280;66904;59.926;30.404;2023-06-05T04:30:57;101568.75;;;23.83;41.86
77739;BME280;66904;59.926;30.404;2023-06-05T04:35:57;101573.16;;;23.84;41.97
77739;BME280;66904;59.926;30.404;2023-06-05T04:40:58;101580.41;;;23.84;42.11
77739;BME280;66904;59.926;30.404;2023-06-05T04:45:59;101583.13;;;23.84;41.92
77739;BME280;66904;59.926;30.404;2023-06-05T04:51:01;101586.00;;;23.82;41.71
77739;BME280;66904;59.926;30.404;2023-06-05T04:56:01;101586.53;;;23.78;41.27
77739;BME280;66904;59.926;30.404;2023-06-05T05:01:02;101585.41;;;23.72;41.38
77739;BME280;66904;59.926;30.404;2023-06-05T05:06:05;101577.81;;;23.67;41.08
77739;BME280;66904;59.926;30.404;2023-06-05T05:11:06;101597.09;;;23.64;41.05
77739;BME280;66904;59.926;30.404;2023-06-05T05:16:06;101586.00;;;23.59;41.29
77739;BME280;66904;59.926;30.404;2023-06-05T05:21:08;101574.34;;;23.59;41.51
77739;BME280;66904;59.926;30.404;2023-06-05T05:26:09;101569.59;;;23.61;41.12
77739;BME280;66904;59.926;30.404;2023-06-05T05:31:09;101566.53;;;23.64;41.30
77739;BME280;66904;59.926;30.404;2023-06-05T05:36:10;101555.19;;;23.68;41.42
77739;BME280;66904;59.926;30.404;2023-06-05T05:41:10;101560.22;;;23.72;41.51
77739;BME280;66904;59.926;30.404;2023-06-05T05:46:26;101567.13;;;23.74;41.22
77739;BME280;66904;59.926;30.404;2023-06-05T05:51:26;101563.22;;;23.77;41.33
77739;BME280;66904;59.926;30.404;2023-06-05T05:56:27;101562.41;;;23.76;41.69
77739;BME280;66904;59.926;30.404;2023-06-05T06:01:27;101552.91;;;23.80;41.65
77739;BME280;66904;59.926;30.404;2023-06-05T06:06:28;101554.59;;;23.81;41.69
77739;BME280;66904;59.926;30.404;2023-06-05T06:11:28;101565.41;;;23.81;41.82
77739;BME280;66904;59.926;30.404;2023-06-05T06:16:29;101571.47;;;23.83;42.11
77739;BME280;66904;59.926;30.404;2023-06-05T06:21:30;101574.16;;;23.83;41.95
77739;BME280;66904;59.926;30.404;2023-06-05T06:26:31;101573.34;;;23.83;41.82
77739;BME280;66904;59.926;30.404;2023-06-05T06:31:32;101586.00;;;23.82;41.70
77739;BME280;66904;59.926;30.404;2023-06-05T06:36:32;101581.63;;;23.81;41.72
77739;BME280;66904;59.926;30.404;2023-06-05T06:41:33;101570.84;;;23.73;41.66
77739;BME280;66904;59.926;30.404;2023-06-05T06:46:34;101586.53;;;23.78;41.39
77739;BME280;66904;59.926;30.404;2023-06-05T06:51:35;101576.25;;;23.73;41.46
77739;BME280;66904;59.926;30.404;2023-06-05T06:56:38;101585.88;;;23.76;40.76
77739;BME280;66904;59.926;30.404;2023-06-05T07:01:46;101593.31;;;23.74;40.66
77739;BME280;66904;59.926;30.404;2023-06-05T07:06:49;101590.81;;;23.72;40.70
77739;BME280;66904;59.926;30.404;2023-06-05T07:11:50;101581.00;;;23.71;40.66
77739;BME280;66904;59.926;30.404;2023-06-05T07:16:51;101577.47;;;23.71;40.65
77739;BME280;66904;59.926;30.404;2023-06-05T07:21:56;101579.50;;;23.68;40.54
77739;BME280;66904;59.926;30.404;2023-06-05T07:26:59;101574.47;;;23.65;40.49
77739;BME280;66904;59.926;30.404;2023-06-05T07:32:00;101580.72;;;23.66;40.32
77739;BME280;66904;59.926;30.404;2023-06-05T07:37:03;101577.16;;;23.65;40.55
77739;BME280;66904;59.926;30.404;2023-06-05T07:42:04;101584.41;;;23.65;40.52
77739;BME280;66904;59.926;30.404;2023-06-05T07:47:06;101576.97;;;23.67;40.63
77739;BME280;66904;59.926;30.404;2023-06-05T07:52:06;101580.50;;;23.67;40.09
77739;BME280;66904;59.926;30.404;2023-06-05T07:57:07;101585.75;;;23.69;40.15
77739;BME280;66904;59.926;30.404;2023-06-05T08:02:08;101582.38;;;23.67;39.92
77739;BME280;66904;59.926;30.404;2023-06-05T08:07:09;101585.06;;;23.67;40.16
77739;BME280;66904;59.926;30.404;2023-06-05T08:12:10;101595.72;;;23.68;40.22
77739;BME280;66904;59.926;30.404;2023-06-05T08:17:10;101596.56;;;23.69;39.91
77739;BME280;66904;59.926;30.404;2023-06-05T08:22:11;101593.00;;;23.68;40.22
77739;BME280;66904;59.926;30.404;2023-06-05T08:27:12;101581.88;;;23.63;39.83
77739;BME280;66904;59.926;30.404;2023-06-05T08:32:12;101582.22;;;23.68;39.96
77739;BME280;66904;59.926;30.404;2023-06-05T08:37:14;101587.78;;;23.67;39.81
77739;BME280;66904;59.926;30.404;2023-06-05T08:42:14;101596.56;;;23.69;39.84
77739;BME280;66904;59.926;30.404;2023-06-05T08:47:19;101582.22;;;23.68;40.40
77739;BME280;66904;59.926;30.404;2023-06-05T08:52:23;101595.38;;;23.72;40.17
77739;BME280;66904;59.926;30.404;2023-06-05T08:57:23;101581.72;;;23.65;39.91
77739;BME280;66904;59.926;30.404;2023-06-05T09:02:24;101585.75;;;23.69;39.75
77739;BME280;66904;59.926;30.404;2023-06-05T09:07:25;101585.41;;;23.72;39.94
77739;BME280;66904;59.926;30.404;2023-06-05T09:12:27;101578.31;;;23.71;39.87
77739;BME280;66904;59.926;30.404;2023-06-05T09:17:28;101583.53;;;23.73;39.52
77739;BME280;66904;59.926;30.404;2023-06-05T09:22:32;101582.88;;;23.71;39.48
77739;BME280;66904;59.926;30.404;2023-06-05T09:27:34;101578.31;;;23.71;39.53
77739;BME280;66904;59.926;30.404;2023-06-05T09:32:36;101579.66;;;23.67;39.45
77739;BME280;66904;59.926;30.404;2023-06-05T09:37:38;101579.66;;;23.67;39.24
77739;BME280;66904;59.926;30.404;2023-06-05T09:42:39;101573.63;;;23.65;39.54
77739;BME280;66904;59.926;30.404;2023-06-05T09:47:39;101575.66;;;23.63;39.43
77739;BME280;66904;59.926;30.404;2023-06-05T09:52:40;101577.31;;;23.64;39.32
77739;BME280;66904;59.926;30.404;2023-06-05T09:57:41;101573.78;;;23.63;39.11
77739;BME280;66904;59.926;30.404;2023-06-05T10:02:42;101580.03;;;23.64;38.81
77739;BME280;66904;59.926;30.404;2023-06-05T10:07:43;101580.22;;;23.62;38.53
77739;BME280;66904;59.926;30.404;2023-06-05T10:12:44;101570.94;;;23.57;39.22
77739;BME280;66904;59.926;30.404;2023-06-05T10:17:48;101584.94;;;23.60;38.62
77739;BME280;66904;59.926;30.404;2023-06-05T10:22:49;101596.59;;;23.61;38.81
77739;BME280;66904;59.926;30.404;2023-06-05T10:33:03;101592.03;;;23.61;39.13
77739;BME280;66904;59.926;30.404;2023-06-05T10:43:46;101599.97;;;23.63;38.66
77739;BME280;66904;59.926;30.404;2023-06-05T10:49:09;101597.28;;;23.63;38.41
77739;BME280;66904;59.926;30.404;2023-06-05T10:54:14;101596.59;;;23.61;38.55
77739;BME280;66904;59.926;30.404;2023-06-05T10:59:21;101595.94;;;23.59;38.58
77739;BME280;66904;59.926;30.404;2023-06-05T11:04:22;101598.66;;;23.59;38.36
77739;BME280;66904;59.926;30.404;2023-06-05T11:09:24;101598.66;;;23.59;38.34
77739;BME280;66904;59.926;30.404;2023-06-05T11:14:43;101588.50;;;23.61;38.24
77739;BME280;66904;59.926;30.404;2023-06-05T11:19:43;101582.44;;;23.59;38.85
77739;BME280;66904;59.926;30.404;2023-06-05T11:24:44;101584.59;;;23.63;39.14
77739;BME280;66904;59.926;30.404;2023-06-05T11:29:44;101578.38;;;23.63;38.96
77739;BME280;66904;59.926;30.404;2023-06-05T11:34:49;101573.63;;;23.65;39.46
77739;BME280;66904;59.926;30.404;2023-06-05T11:39:50;101566.66;;;23.71;39.04
77739;BME280;66904;59.926;30.404;2023-06-05T11:44:51;101571.53;;;23.75;39.01
77739;BME280;66904;59.926;30.404;2023-06-05T11:49:51;101559.34;;;23.79;39.31
77739;BME280;66904;59.926;30.404;2023-06-05T11:54:52;101568.75;;;23.83;39.22
77739;BME280;66904;59.926;30.404;2023-06-05T12:00:06;101555.06;;;23.85;38.98
77739;BME280;66904;59.926;30.404;2023-06-05T12:05:08;101556.56;;;23.87;38.95
77739;BME280;66904;59.926;30.404;2023-06-05T12:10:09;101537.38;;;23.82;38.95
77739;BME280;66904;59.926;30.404;2023-06-05T12:15:28;101550.28;;;23.95;38.93
77739;BME280;66904;59.926;30.404;2023-06-05T12:20:38;101551.97;;;23.96;38.82
77739;BME280;66904;59.926;30.404;2023-06-05T12:25:40;101553.81;;;23.95;38.85
77739;BME280;66904;59.926;30.404;2023-06-05T12:30:40;101557.19;;;23.97;38.81
77739;BME280;66904;59.926;30.404;2023-06-05T12:35:41;101550.75;;;23.98;39.02
77739;BME280;66904;59.926;30.404;2023-06-05T12:40:41;101563.25;;;23.99;38.78
77739;BME280;66904;59.926;30.404;2023-06-05T12:45:42;101558.50;;;24.01;38.81
77739;BME280;66904;59.926;30.404;2023-06-05T12:50:43;101564.56;;;24.03;38.51
77739;BME280;66904;59.926;30.404;2023-06-05T12:55:44;101567.94;;;24.05;38.64
77739;BME280;66904;59.926;30.404;2023-06-05T13:00:45;101572.31;;;24.06;38.22
77739;BME280;66904;59.926;30.404;2023-06-05T13:05:45;101581.09;;;24.08;38.47
77739;BME280;66904;59.926;30.404;2023-06-05T13:10:46;101569.44;;;24.08;38.59
77739;BME280;66904;59.926;30.404;2023-06-05T13:15:46;101576.53;;;24.09;38.40
77739;BME280;66904;59.926;30.404;2023-06-05T13:20:47;101567.75;;;24.07;38.33
77739;BME280;66904;59.926;30.404;2023-06-05T13:25:48;101573.16;;;24.07;38.31
77739;BME280;66904;59.926;30.404;2023-06-05T13:30:48;101567.56;;;24.08;38.30
77739;BME280;66904;59.926;30.404;2023-06-05T13:35:49;101558.47;;;24.09;37.93
77739;BME280;66904;59.926;30.404;2023-06-05T13:40:49;101559.25;;;24.10;38.18
77739;BME280;66904;59.926;30.404;2023-06-05T13:45:52;101540.91;;;24.05;38.19
77739;BME280;66904;59.926;30.404;2023-06-05T13:50:52;101561.16;;;24.09;38.00
77739;BME280;66904;59.926;30.404;2023-06-05T13:55:53;101563.88;;;24.09;38.02
77739;BME280;66904;59.926;30.404;2023-06-05T14:00:54;101565.72;;;24.09;37.96
77739;BME280;66904;59.926;30.404;2023-06-05T14:05:55;101560.13;;;24.10;37.93
77739;BME280;66904;59.926;30.404;2023-06-05T14:10:55;101553.53;;;24.13;38.13
77739;BME280;66904;59.926;30.404;2023-06-05T14:15:56;101552.50;;;24.14;37.85
77739;BME280;66904;59.926;30.404;2023-06-05T14:20:57;101551.66;;;24.13;37.88
77739;BME280;66904;59.926;30.404;2023-06-05T14:25:57;101551.66;;;24.13;37.71
77739;BME280;66904;59.926;30.404;2023-06-05T14:30:58;101543.38;;;24.15;37.90
77739;BME280;66904;59.926;30.404;2023-06-05T14:35:58;101548.59;;;24.16;37.67
77739;BME280;66904;59.926;30.404;2023-06-05T14:41:00;101544.03;;;24.17;37.66
77739;BME280;66904;59.926;30.404;2023-06-05T14:46:01;101529.66;;;24.16;37.94
77739;BME280;66904;59.926;30.404;2023-06-05T14:51:02;101549.44;;;24.17;37.99
77739;BME280;66904;59.926;30.404;2023-06-05T14:56:02;101545.53;;;24.19;38.04
77739;BME280;66904;59.926;30.404;2023-06-05T15:01:03;101532.75;;;24.13;37.73
77739;BME280;66904;59.926;30.404;2023-06-05T15:06:04;101534.75;;;24.11;37.77
77739;BME280;66904;59.926;30.404;2023-06-05T15:11:04;101539.00;;;24.14;38.23
77739;BME280;66904;59.926;30.404;2023-06-05T15:16:05;101543.75;;;24.12;37.97
77739;BME280;66904;59.926;30.404;2023-06-05T15:21:06;101545.59;;;24.11;37.33
77739;BME280;66904;59.926;30.404;2023-06-05T15:26:06;101536.63;;;24.11;37.80
77739;BME280;66904;59.926;30.404;2023-06-05T15:31:07;101542.00;;;24.19;37.64
77739;BME280;66904;59.926;30.404;2023-06-05T15:36:07;101538.94;;;24.22;37.36
77739;BME280;66904;59.926;30.404;2023-06-05T15:41:10;101537.09;;;24.23;37.42
77739;BME280;66904;59.926;30.404;2023-06-05T15:46:11;101531.34;;;24.17;37.21
77739;BME280;66904;59.926;30.404;2023-06-05T15:51:11;101529.88;;;24.15;37.50
77739;BME280;66904;59.926;30.404;2023-06-05T15:56:12;101540.19;;;24.11;37.02
77739;BME280;66904;59.926;30.404;2023-06-05T16:01:12;101537.47;;;24.11;37.36
77739;BME280;66904;59.926;30.404;2023-06-05T16:06:13;101528.72;;;24.09;37.32
77739;BME280;66904;59.926;30.404;2023-06-05T16:11:14;101517.22;;;24.07;37.42
77739;BME280;66904;59.926;30.404;2023-06-05T16:16:14;101531.41;;;24.09;37.50
77739;BME280;66904;59.926;30.404;2023-06-05T16:21:15;101525.69;;;24.12;37.64
77739;BME280;66904;59.926;30.404;2023-06-05T16:26:16;101522.78;;;24.14;37.80
77739;BME280;66904;59.926;30.404;2023-06-05T16:31:16;101521.25;;;24.11;37.64
77739;BME280;66904;59.926;30.404;2023-06-05T16:36:17;101519.41;;;24.12;38.08
77739;BME280;66904;59.926;30.404;2023-06-05T16:41:18;101528.72;;;24.09;37.82
77739;BME280;66904;59.926;30.404;2023-06-05T16:46:19;101516.22;;;24.08;38.19
77739;BME280;66904;59.926;30.404;2023-06-05T16:51:22;101511.81;;;24.07;38.15
77739;BME280;66904;59.926;30.404;2023-06-05T16:56:23;101509.78;;;24.09;38.30
77739;BME280;66904;59.926;30.404;2023-06-05T17:01:23;101508.94;;;24.09;38.31
77739;BME280;66904;59.926;30.404;2023-06-05T17:06:24;101512.50;;;24.09;38.52
77739;BME280;66904;59.926;30.404;2023-06-05T17:11:24;101511.09;;;24.13;38.44
77739;BME280;66904;59.926;30.404;2023-06-05T17:16:25;101518.53;;;24.11;38.02
77739;BME280;66904;59.926;30.404;2023-06-05T17:21:26;101499.78;;;24.10;38.34
77739;BME280;66904;59.926;30.404;2023-06-05T17:26:27;101507.56;;;24.13;38.53
77739;BME280;66904;59.926;30.404;2023-06-05T17:31:30;101505.34;;;24.16;38.50
77739;BME280;66904;59.926;30.404;2023-06-05T17:36:31;101524.56;;;24.22;38.53
77739;BME280;66904;59.926;30.404;2023-06-05T17:41:31;101515.88;;;24.26;38.48
77739;BME280;66904;59.926;30.404;2023-06-05T17:46:32;101511.44;;;24.33;38.73
77739;BME280;66904;59.926;30.404;2023-06-05T17:51:32;101515.66;;;24.36;38.62
77739;BME280;66904;59.926;30.404;2023-06-05T17:56:33;101509.88;;;24.39;38.50
77739;BME280;66904;59.926;30.404;2023-06-05T18:01:34;101514.81;;;24.35;38.39
77739;BME280;66904;59.926;30.404;2023-06-05T18:06:34;101521.06;;;24.36;38.57
77739;BME280;66904;59.926;30.404;2023-06-05T18:11:36;101517.03;;;24.32;38.54
77739;BME280;66904;59.926;30.404;2023-06-05T18:16:36;101515.34;;;24.31;38.88
77739;BME280;66904;59.926;30.404;2023-06-05T18:21:38;101512.84;;;24.29;38.50
77739;BME280;66904;59.926;30.404;2023-06-05T18:26:38;101512.84;;;24.29;38.68
77739;BME280;66904;59.926;30.404;2023-06-05T18:31:39;101500.34;;;24.28;38.80
77739;BME280;66904;59.926;30.404;2023-06-05T18:36:41;101507.72;;;24.34;39.14
77739;BME280;66904;59.926;30.404;2023-06-05T18:41:42;101512.94;;;24.36;38.94
77739;BME280;66904;59.926;30.404;2023-06-05T18:46:43;101506.97;;;24.40;39.22
77739;BME280;66904;59.926;30.404;2023-06-05T18:51:44;101514.91;;;24.42;39.40
77739;BME280;66904;59.926;30.404;2023-06-05T18:56:44;101516.22;;;24.46;39.92
77739;BME280;66904;59.926;30.404;2023-06-05T19:01:45;101516.03;;;24.47;40.05
77739;BME280;66904;59.926;30.404;2023-06-05T19:06:45;101512.69;;;24.45;40.38
77739;BME280;66904;59.926;30.404;2023-06-05T19:11:46;101518.94;;;24.46;40.55
77739;BME280;66904;59.926;30.404;2023-06-05T19:16:47;101518.63;;;24.41;40.56
77739;BME280;66904;59.926;30.404;2023-06-05T19:21:47;101518.16;;;24.37;40.66
77739;BME280;66904;59.926;30.404;2023-06-05T19:26:48;101516.19;;;24.31;40.91
77739;BME280;66904;59.926;30.404;2023-06-05T19:31:48;101521.50;;;24.25;41.17
77739;BME280;66904;59.926;30.404;2023-06-05T19:36:50;101523.72;;;24.21;40.77
77739;BME280;66904;59.926;30.404;2023-06-05T19:41:50;101523.09;;;24.19;40.65
77739;BME280;66904;59.926;30.404;2023-06-05T19:46:51;101523.25;;;24.17;40.65
77739;BME280;66904;59.926;30.404;2023-06-05T19:51:51;101531.72;;;24.14;40.82
77739;BME280;66904;59.926;30.404;2023-06-05T19:56:52;101521.25;;;24.11;40.84
77739;BME280;66904;59.926;30.404;2023-06-05T20:01:52;101527.34;;;24.13;40.28
77739;BME280;66904;59.926;30.404;2023-06-05T20:06:53;101517.06;;;24.09;40.58
77739;BME280;66904;59.926;30.404;2023-06-05T20:11:53;101523.31;;;24.09;40.47
77739;BME280;66904;59.926;30.404;2023-06-05T20:16:54;101515.91;;;24.03;40.32
77739;BME280;66904;59.926;30.404;2023-06-05T20:21:54;101524.31;;;24.08;40.36
77739;BME280;66904;59.926;30.404;2023-06-05T20:26:55;101528.88;;;24.08;40.26
77739;BME280;66904;59.926;30.404;2023-06-05T20:31:56;101529.41;;;24.03;40.41
77739;BME280;66904;59.926;30.404;2023-06-05T20:36:56;101535.66;;;24.04;40.09
77739;BME280;66904;59.926;30.404;2023-06-05T20:42:03;101533.97;;;24.03;40.30
77739;BME280;66904;59.926;30.404;2023-06-05T20:47:05;101532.13;;;24.03;40.18
77739;BME280;66904;59.926;30.404;2023-06-05T20:52:05;101537.84;;;24.08;40.30
77739;BME280;66904;59.926;30.404;2023-06-05T20:57:11;101544.94;;;24.09;40.41
77739;BME280;66904;59.926;30.404;2023-06-05T21:02:12;101557.97;;;24.06;40.37
77739;BME280;66904;59.926;30.404;2023-06-05T21:07:12;101548.81;;;24.07;40.58
77739;BME280;66904;59.926;30.404;2023-06-05T21:12:13;101553.03;;;24.09;40.74
77739;BME280;66904;59.926;30.404;2023-06-05T21:17:14;101557.06;;;24.13;41.21
77739;BME280;66904;59.926;30.404;2023-06-05T21:22:14;101563.66;;;24.19;41.49
77739;BME280;66904;59.926;30.404;2023-06-05T21:27:15;101570.53;;;24.22;41.85
77739;BME280;66904;59.926;30.404;2023-06-05T21:32:15;101569.53;;;24.23;41.98
77739;BME280;66904;59.926;30.404;2023-06-05T21:37:16;101576.44;;;24.25;41.76
77739;BME280;66904;59.926;30.404;2023-06-05T21:42:18;101566.50;;;24.17;42.12
77739;BME280;66904;59.926;30.404;2023-06-05T21:47:18;101577.34;;;24.17;41.82
77739;BME280;66904;59.926;30.404;2023-06-05T21:52:19;101577.19;;;24.11;41.69
77739;BME280;66904;59.926;30.404;2023-06-05T21:57:19;101566.63;;;24.01;41.66
77739;BME280;66904;59.926;30.404;2023-06-05T22:02:20;101591.59;;;24.03;41.58
77739;BME280;66904;59.926;30.404;2023-06-05T22:07:21;101584.22;;;23.97;41.60
77739;BME280;66904;59.926;30.404;2023-06-05T22:12:21;101590.47;;;23.98;41.54
77739;BME280;66904;59.926;30.404;2023-06-05T22:17:24;101595.22;;;23.96;41.72
77739;BME280;66904;59.926;30.404;2023-06-05T22:22:25;101596.38;;;23.93;41.77
77739;BME280;66904;59.926;30.404;2023-06-05T22:27:26;101594.25;;;23.89;41.71
77739;BME280;66904;59.926;30.404;2023-06-05T22:32:27;101605.91;;;23.89;41.40
77739;BME280;66904;59.926;30.404;2023-06-05T22:37:28;101596.94;;;23.89;41.69
77739;BME280;66904;59.926;30.404;2023-06-05T22:42:33;101600.00;;;23.86;41.55
77739;BME280;66904;59.926;30.404;2023-06-05T22:47:34;101609.97;;;23.85;41.71
77739;BME280;66904;59.926;30.404;2023-06-05T22:52:35;101608.28;;;23.84;41.54
77739;BME280;66904;59.926;30.404;2023-06-05T22:57:38;101611.19;;;23.83;41.69
77739;BME280;66904;59.926;30.404;2023-06-05T23:02:39;101620.94;;;23.84;41.52
77739;BME280;66904;59.926;30.404;2023-06-05T23:07:39;101608.47;;;23.83;41.75
77739;BME280;66904;59.926;30.404;2023-06-05T23:12:40;101613.88;;;23.83;42.01
77739;BME280;66904;59.926;30.404;2023-06-05T23:17:40;101616.75;;;23.81;42.06
77739;BME280;66904;59.926;30.404;2023-06-05T23:22:41;101625.69;;;23.82;41.87
77739;BME280;66904;59.926;30.404;2023-06-05T23:27:41;101623.34;;;23.79;42.14
77739;BME280;66904;59.926;30.404;2023-06-05T23:32:42;101625.06;;;23.80;41.83
77739;BME280;66904;59.926;30.404;2023-06-05T23:37:42;101630.47;;;23.80;41.84
77739;BME280;66904;59.926;30.404;2023-06-05T23:42:43;101628.94;;;23.77;41.89
77739;BME280;66904;59.926;30.404;2023-06-05T23:47:46;101624.72;;;23.75;42.39
77739;BME280;66904;59.926;30.404;2023-06-05T23:52:50;101641.44;;;23.78;42.04
77739;BME280;66904;59.926;30.404;2023-06-05T23:57:52;101631.34;;;23.72;42.11
